sensor_id;sensor_type;location;lat;lon;timestamp;temperature;humidity
14277;DHT22;7222;57.346;12.150;2023-07-20T00:00:27;14.80;99.90
14277;DHT22;7222;57.346;12.150;2023-07-20T00:03:10;14.80;99.90
14277;DHT22;7222;57.346;12.150;2023-07-20T00:05:38;14.80;99.90
14277;DHT22;7222;57.346;12.150;2023-07-20T00:08:05;14.80;99.90
14277;DHT22;7222;57.346;12.150;2023-07-20T00:10:32;14.80;99.90
14277;DHT22;7222;57.346;12.150;2023-07-20T00:13:01;14.80;99.90
14277;DHT22;7222;57.346;12.150;2023-07-20T00:15:28;14.80;99.90
14277;DHT22;7222;57.346;12.150;2023-07-20T00:17:55;14.80;99.90
14277;DHT22;7222;57.346;12.150;2023-07-20T00:20:24;14.80;99.90
14277;DHT22;7222;57.346;12.150;2023-07-20T00:22:51;14.80;99.90
14277;DHT22;7222;57.346;12.150;2023-07-20T00:25:18;14.70;99.90
14277;DHT22;7222;57.346;12.150;2023-07-20T00:27:45;14.70;99.90
14277;DHT22;7222;57.346;12.150;2023-07-20T00:30:14;14.80;99.90
14277;DHT22;7222;57.346;12.150;2023-07-20T00:32:42;14.80;99.90
14277;DHT22;7222;57.346;12.150;2023-07-20T00:35:09;14.80;99.90
14277;DHT22;7222;57.346;12.150;2023-07-20T00:37:36;14.80;99.90
14277;DHT22;7222;57.346;12.150;2023-07-20T00:40:04;14.70;99.90
14277;DHT22;7222;57.346;12.150;2023-07-20T00:42:33;14.70;99.90
14277;DHT22;7222;57.346;12.150;2023-07-20T00:45:00;14.70;99.90
14277;DHT22;7222;57.346;12.150;2023-07-20T00:47:29;14.70;99.90
14277;DHT22;7222;57.346;12.150;2023-07-20T00:49:56;14.70;99.90
14277;DHT22;7222;57.346;12.150;2023-07-20T00:52:23;14.70;99.90
14277;DHT22;7222;57.346;12.150;2023-07-20T00:54:52;14.70;99.90
14277;DHT22;7222;57.346;12.150;2023-07-20T00:57:23;14.60;99.90
14277;DHT22;7222;57.346;12.150;2023-07-20T00:59:50;14.60;99.90
14277;DHT22;7222;57.346;12.150;2023-07-20T01:02:18;14.60;99.90
14277;DHT22;7222;57.346;12.150;2023-07-20T01:04:46;14.70;99.90
14277;DHT22;7222;57.346;12.150;2023-07-20T01:07:20;14.60;99.90
14277;DHT22;7222;57.346;12.150;2023-07-20T01:09:54;14.50;99.90
14277;DHT22;7222;57.346;12.150;2023-07-20T01:12:27;14.60;99.90
14277;DHT22;7222;57.346;12.150;2023-07-20T01:14:54;14.60;99.90
14277;DHT22;7222;57.346;12.150;2023-07-20T01:17:22;14.60;99.90
14277;DHT22;7222;57.346;12.150;2023-07-20T01:19:51;14.50;99.90
14277;DHT22;7222;57.346;12.150;2023-07-20T01:22:35;14.50;99.90
14277;DHT22;7222;57.346;12.150;2023-07-20T01:25:19;14.50;99.90
14277;DHT22;7222;57.346;12.150;2023-07-20T01:30:52;14.40;99.90
14277;DHT22;7222;57.346;12.150;2023-07-20T01:33:24;14.40;99.90
14277;DHT22;7222;57.346;12.150;2023-07-20T01:35:54;14.40;99.90
14277;DHT22;7222;57.346;12.150;2023-07-20T01:38:22;14.30;99.90
14277;DHT22;7222;57.346;12.150;2023-07-20T01:40:50;14.30;99.90
14277;DHT22;7222;57.346;12.150;2023-07-20T01:43:18;14.30;99.90
14277;DHT22;7222;57.346;12.150;2023-07-20T01:45:45;14.30;99.90
14277;DHT22;7222;57.346;12.150;2023-07-20T01:48:12;14.30;99.90
14277;DHT22;7222;57.346;12.150;2023-07-20T01:50:39;14.30;99.90
14277;DHT22;7222;57.346;12.150;2023-07-20T01:53:06;14.30;99.90
14277;DHT22;7222;57.346;12.150;2023-07-20T01:55:34;14.30;99.90
14277;DHT22;7222;57.346;12.150;2023-07-20T01:58:01;14.30;99.90
14277;DHT22;7222;57.346;12.150;2023-07-20T02:00:29;14.30;99.90
14277;DHT22;7222;57.346;12.150;2023-07-20T02:02:55;14.30;99.90
14277;DHT22;7222;57.346;12.150;2023-07-20T02:05:22;14.30;99.90
14277;DHT22;7222;57.346;12.150;2023-07-20T02:07:51;14.30;99.90
14277;DHT22;7222;57.346;12.150;2023-07-20T02:10:18;14.30;99.90
14277;DHT22;7222;57.346;12.150;2023-07-20T02:12:45;14.30;99.90
14277;DHT22;7222;57.346;12.150;2023-07-20T02:15:13;14.30;99.90
14277;DHT22;7222;57.346;12.150;2023-07-20T02:17:42;14.40;99.90
14277;DHT22;7222;57.346;12.150;2023-07-20T02:20:10;14.30;99.90
14277;DHT22;7222;57.346;12.150;2023-07-20T02:22:37;14.30;99.90
14277;DHT22;7222;57.346;12.150;2023-07-20T02:25:07;14.30;99.90
14277;DHT22;7222;57.346;12.150;2023-07-20T02:27:34;14.30;99.90
14277;DHT22;7222;57.346;12.150;2023-07-20T02:30:02;14.30;99.90
14277;DHT22;7222;57.346;12.150;2023-07-20T02:32:30;14.30;99.90
14277;DHT22;7222;57.346;12.150;2023-07-20T02:34:58;14.30;99.90
14277;DHT22;7222;57.346;12.150;2023-07-20T02:37:25;14.20;99.90
14277;DHT22;7222;57.346;12.150;2023-07-20T02:39:52;14.30;99.90
14277;DHT22;7222;57.346;12.150;2023-07-20T02:42:20;14.30;99.90
14277;DHT22;7222;57.346;12.150;2023-07-20T02:44:48;14.30;99.90
14277;DHT22;7222;57.346;12.150;2023-07-20T02:47:18;14.30;99.90
14277;DHT22;7222;57.346;12.150;2023-07-20T02:49:45;14.30;99.90
14277;DHT22;7222;57.346;12.150;2023-07-20T02:52:11;14.40;99.90
14277;DHT22;7222;57.346;12.150;2023-07-20T02:54:38;14.40;99.90
14277;DHT22;7222;57.346;12.150;2023-07-20T02:57:06;14.40;99.90
14277;DHT22;7222;57.346;12.150;2023-07-20T02:59:34;14.50;99.90
14277;DHT22;7222;57.346;12.150;2023-07-20T03:02:02;14.40;99.90
14277;DHT22;7222;57.346;12.150;2023-07-20T03:04:29;14.40;99.90
14277;DHT22;7222;57.346;12.150;2023-07-20T03:06:55;14.50;99.90
14277;DHT22;7222;57.346;12.150;2023-07-20T03:09:22;14.40;99.90
14277;DHT22;7222;57.346;12.150;2023-07-20T03:11:50;14.40;99.90
14277;DHT22;7222;57.346;12.150;2023-07-20T03:14:17;14.50;99.90
14277;DHT22;7222;57.346;12.150;2023-07-20T03:16:46;14.50;99.90
14277;DHT22;7222;57.346;12.150;2023-07-20T03:19:13;14.40;99.90
14277;DHT22;7222;57.346;12.150;2023-07-20T03:21:40;14.50;99.90
14277;DHT22;7222;57.346;12.150;2023-07-20T03:24:08;14.50;99.90
14277;DHT22;7222;57.346;12.150;2023-07-20T03:26:35;14.50;99.90
14277;DHT22;7222;57.346;12.150;2023-07-20T03:29:02;14.50;99.90
14277;DHT22;7222;57.346;12.150;2023-07-20T03:31:29;14.50;99.90
14277;DHT22;7222;57.346;12.150;2023-07-20T03:33:58;14.50;99.90
14277;DHT22;7222;57.346;12.150;2023-07-20T03:36:25;14.50;99.90
14277;DHT22;7222;57.346;12.150;2023-07-20T03:38:52;14.50;99.90
14277;DHT22;7222;57.346;12.150;2023-07-20T03:41:19;14.50;99.90
14277;DHT22;7222;57.346;12.150;2023-07-20T03:43:47;14.50;99.90
14277;DHT22;7222;57.346;12.150;2023-07-20T03:46:14;14.50;99.90
14277;DHT22;7222;57.346;12.150;2023-07-20T03:48:41;14.40;99.90
14277;DHT22;7222;57.346;12.150;2023-07-20T03:51:10;14.40;99.90
14277;DHT22;7222;57.346;12.150;2023-07-20T03:53:37;14.50;99.90
14277;DHT22;7222;57.346;12.150;2023-07-20T03:56:04;14.50;99.90
14277;DHT22;7222;57.346;12.150;2023-07-20T03:58:32;14.50;99.90
14277;DHT22;7222;57.346;12.150;2023-07-20T04:00:58;14.50;99.90
14277;DHT22;7222;57.346;12.150;2023-07-20T04:03:26;14.50;99.90
14277;DHT22;7222;57.346;12.150;2023-07-20T04:05:54;14.50;99.90
14277;DHT22;7222;57.346;12.150;2023-07-20T04:08:23;14.50;99.90
14277;DHT22;7222;57.346;12.150;2023-07-20T04:10:52;14.50;99.90
14277;DHT22;7222;57.346;12.150;2023-07-20T04:13:19;14.40;99.90
14277;DHT22;7222;57.346;12.150;2023-07-20T04:15:46;14.40;99.90
14277;DHT22;7222;57.346;12.150;2023-07-20T04:18:13;14.40;99.90
14277;DHT22;7222;57.346;12.150;2023-07-20T04:20:40;14.40;99.90
14277;DHT22;7222;57.346;12.150;2023-07-20T04:23:07;14.30;99.90
14277;DHT22;7222;57.346;12.150;2023-07-20T04:25:35;14.30;99.90
14277;DHT22;7222;57.346;12.150;2023-07-20T04:28:06;14.30;99.90
14277;DHT22;7222;57.346;12.150;2023-07-20T04:30:35;14.30;99.90
14277;DHT22;7222;57.346;12.150;2023-07-20T04:33:03;14.30;99.90
14277;DHT22;7222;57.346;12.150;2023-07-20T04:35:47;14.30;99.90
14277;DHT22;7222;57.346;12.150;2023-07-20T04:38:15;14.30;99.90
14277;DHT22;7222;57.346;12.150;2023-07-20T04:40:44;14.40;99.90
14277;DHT22;7222;57.346;12.150;2023-07-20T04:43:12;14.40;99.90
14277;DHT22;7222;57.346;12.150;2023-07-20T04:45:39;14.40;99.90
14277;DHT22;7222;57.346;12.150;2023-07-20T04:48:09;14.40;99.90
14277;DHT22;7222;57.346;12.150;2023-07-20T04:50:37;14.50;99.90
14277;DHT22;7222;57.346;12.150;2023-07-20T04:53:04;14.50;99.90
14277;DHT22;7222;57.346;12.150;2023-07-20T04:55:31;14.60;99.90
14277;DHT22;7222;57.346;12.150;2023-07-20T04:58:00;14.60;99.90
14277;DHT22;7222;57.346;12.150;2023-07-20T05:00:28;14.50;99.90
14277;DHT22;7222;57.346;12.150;2023-07-20T05:02:55;14.60;99.90
14277;DHT22;7222;57.346;12.150;2023-07-20T05:05:22;14.60;99.90
14277;DHT22;7222;57.346;12.150;2023-07-20T05:07:49;14.70;99.90
14277;DHT22;7222;57.346;12.150;2023-07-20T05:10:16;14.60;99.90
14277;DHT22;7222;57.346;12.150;2023-07-20T05:12:44;14.60;99.90
14277;DHT22;7222;57.346;12.150;2023-07-20T05:15:12;14.60;99.90
14277;DHT22;7222;57.346;12.150;2023-07-20T05:17:40;14.70;99.90
14277;DHT22;7222;57.346;12.150;2023-07-20T05:20:07;14.60;99.90
14277;DHT22;7222;57.346;12.150;2023-07-20T05:22:38;14.70;99.90
14277;DHT22;7222;57.346;12.150;2023-07-20T05:25:07;14.70;99.90
14277;DHT22;7222;57.346;12.150;2023-07-20T05:27:35;14.90;99.90
14277;DHT22;7222;57.346;12.150;2023-07-20T05:30:04;15.00;99.90
14277;DHT22;7222;57.346;12.150;2023-07-20T05:32:34;15.10;99.90
14277;DHT22;7222;57.346;12.150;2023-07-20T05:35:01;15.30;99.90
14277;DHT22;7222;57.346;12.150;2023-07-20T05:37:28;15.30;28.30
14277;DHT22;7222;57.346;12.150;2023-07-20T05:39:55;15.20;98.30
14277;DHT22;7222;57.346;12.150;2023-07-20T05:42:22;15.30;99.90
14277;DHT22;7222;57.346;12.150;2023-07-20T05:44:49;15.40;7.70
14277;DHT22;7222;57.346;12.150;2023-07-20T05:47:18;15.20;75.00
14277;DHT22;7222;57.346;12.150;2023-07-20T05:49:47;15.20;99.90
14277;DHT22;7222;57.346;12.150;2023-07-20T05:52:14;15.40;82.40
14277;DHT22;7222;57.346;12.150;2023-07-20T05:54:41;15.30;24.60
14277;DHT22;7222;57.346;12.150;2023-07-20T05:57:08;15.30;99.90
14277;DHT22;7222;57.346;12.150;2023-07-20T05:59:36;15.30;6.20
14277;DHT22;7222;57.346;12.150;2023-07-20T06:02:04;15.00;5.30
14277;DHT22;7222;57.346;12.150;2023-07-20T06:04:31;15.30;99.90
14277;DHT22;7222;57.346;12.150;2023-07-20T06:07:00;15.50;99.90
14277;DHT22;7222;57.346;12.150;2023-07-20T06:09:27;15.40;58.60
14277;DHT22;7222;57.346;12.150;2023-07-20T06:11:54;15.70;99.90
14277;DHT22;7222;57.346;12.150;2023-07-20T06:14:22;15.70;1.00
14277;DHT22;7222;57.346;12.150;2023-07-20T06:16:49;15.60;99.90
14277;DHT22;7222;57.346;12.150;2023-07-20T06:19:16;15.40;99.90
14277;DHT22;7222;57.346;12.150;2023-07-20T06:21:43;15.40;99.90
14277;DHT22;7222;57.346;12.150;2023-07-20T06:24:13;15.30;99.90
14277;DHT22;7222;57.346;12.150;2023-07-20T06:26:40;15.30;99.90
14277;DHT22;7222;57.346;12.150;2023-07-20T06:29:08;15.20;99.90
14277;DHT22;7222;57.346;12.150;2023-07-20T06:31:36;15.20;99.90
14277;DHT22;7222;57.346;12.150;2023-07-20T06:34:03;15.30;99.90
14277;DHT22;7222;57.346;12.150;2023-07-20T06:36:31;15.50;99.90
14277;DHT22;7222;57.346;12.150;2023-07-20T06:38:57;15.40;99.90
14277;DHT22;7222;57.346;12.150;2023-07-20T06:41:26;15.50;99.90
14277;DHT22;7222;57.346;12.150;2023-07-20T06:43:54;15.70;99.90
14277;DHT22;7222;57.346;12.150;2023-07-20T06:46:24;15.70;99.90
14277;DHT22;7222;57.346;12.150;2023-07-20T06:48:51;15.70;99.90
14277;DHT22;7222;57.346;12.150;2023-07-20T06:51:19;15.60;99.90
14277;DHT22;7222;57.346;12.150;2023-07-20T06:53:46;15.40;99.90
14277;DHT22;7222;57.346;12.150;2023-07-20T06:56:13;15.50;99.90
14277;DHT22;7222;57.346;12.150;2023-07-20T06:58:42;15.70;99.90
14277;DHT22;7222;57.346;12.150;2023-07-20T07:01:09;15.60;99.90
14277;DHT22;7222;57.346;12.150;2023-07-20T07:03:36;15.50;99.90
14277;DHT22;7222;57.346;12.150;2023-07-20T07:06:03;15.80;99.90
14277;DHT22;7222;57.346;12.150;2023-07-20T07:08:30;16.00;99.90
14277;DHT22;7222;57.346;12.150;2023-07-20T07:10:57;15.90;99.90
14277;DHT22;7222;57.346;12.150;2023-07-20T07:13:25;15.80;99.90
14277;DHT22;7222;57.346;12.150;2023-07-20T07:15:53;15.50;99.90
14277;DHT22;7222;57.346;12.150;2023-07-20T07:18:20;15.40;99.90
14277;DHT22;7222;57.346;12.150;2023-07-20T07:20:51;15.80;99.90
14277;DHT22;7222;57.346;12.150;2023-07-20T07:23:18;16.20;99.90
14277;DHT22;7222;57.346;12.150;2023-07-20T07:25:46;16.50;99.90
14277;DHT22;7222;57.346;12.150;2023-07-20T07:28:13;16.40;99.90
14277;DHT22;7222;57.346;12.150;2023-07-20T07:30:40;16.60;1.00
14277;DHT22;7222;57.346;12.150;2023-07-20T07:33:09;16.80;1.00
14277;DHT22;7222;57.346;12.150;2023-07-20T07:35:37;16.70;1.00
14277;DHT22;7222;57.346;12.150;2023-07-20T07:38:04;16.70;1.00
14277;DHT22;7222;57.346;12.150;2023-07-20T07:40:32;16.20;99.90
14277;DHT22;7222;57.346;12.150;2023-07-20T07:42:59;16.40;99.90
14277;DHT22;7222;57.346;12.150;2023-07-20T07:45:26;16.10;99.90
14277;DHT22;7222;57.346;12.150;2023-07-20T07:47:53;16.10;99.90
14277;DHT22;7222;57.346;12.150;2023-07-20T07:50:21;16.50;99.90
14277;DHT22;7222;57.346;12.150;2023-07-20T07:52:48;16.40;1.00
14277;DHT22;7222;57.346;12.150;2023-07-20T07:55:15;16.70;1.00
14277;DHT22;7222;57.346;12.150;2023-07-20T07:57:43;16.90;1.00
14277;DHT22;7222;57.346;12.150;2023-07-20T08:00:11;16.90;99.90
14277;DHT22;7222;57.346;12.150;2023-07-20T08:02:40;17.20;99.90
14277;DHT22;7222;57.346;12.150;2023-07-20T08:05:08;17.10;1.00
14277;DHT22;7222;57.346;12.150;2023-07-20T08:07:37;17.10;99.90
14277;DHT22;7222;57.346;12.150;2023-07-20T08:10:05;17.50;1.00
14277;DHT22;7222;57.346;12.150;2023-07-20T08:12:32;17.40;1.00
14277;DHT22;7222;57.346;12.150;2023-07-20T08:14:59;17.00;99.90
14277;DHT22;7222;57.346;12.150;2023-07-20T08:17:26;17.10;99.90
14277;DHT22;7222;57.346;12.150;2023-07-20T08:19:53;17.40;98.60
14277;DHT22;7222;57.346;12.150;2023-07-20T08:22:20;17.30;1.00
14277;DHT22;7222;57.346;12.150;2023-07-20T08:24:49;17.30;99.90
14277;DHT22;7222;57.346;12.150;2023-07-20T08:27:16;17.20;99.90
14277;DHT22;7222;57.346;12.150;2023-07-20T08:29:53;17.00;99.90
14277;DHT22;7222;57.346;12.150;2023-07-20T08:32:21;17.00;99.90
14277;DHT22;7222;57.346;12.150;2023-07-20T08:34:48;17.10;99.90
14277;DHT22;7222;57.346;12.150;2023-07-20T08:37:15;17.20;99.90
14277;DHT22;7222;57.346;12.150;2023-07-20T08:39:42;17.00;99.90
14277;DHT22;7222;57.346;12.150;2023-07-20T08:42:12;17.00;99.90
14277;DHT22;7222;57.346;12.150;2023-07-20T08:44:42;16.90;99.90
14277;DHT22;7222;57.346;12.150;2023-07-20T08:47:10;17.30;99.90
14277;DHT22;7222;57.346;12.150;2023-07-20T08:49:39;17.00;99.90
14277;DHT22;7222;57.346;12.150;2023-07-20T08:52:07;17.50;99.90
14277;DHT22;7222;57.346;12.150;2023-07-20T08:54:35;17.90;1.00
14277;DHT22;7222;57.346;12.150;2023-07-20T08:57:03;17.50;1.00
14277;DHT22;7222;57.346;12.150;2023-07-20T08:59:32;17.20;1.00
14277;DHT22;7222;57.346;12.150;2023-07-20T09:02:02;17.10;99.90
14277;DHT22;7222;57.346;12.150;2023-07-20T09:04:31;17.20;99.90
14277;DHT22;7222;57.346;12.150;2023-07-20T09:06:58;17.60;99.90
14277;DHT22;7222;57.346;12.150;2023-07-20T09:09:25;18.00;99.90
14277;DHT22;7222;57.346;12.150;2023-07-20T09:11:52;18.10;99.90
14277;DHT22;7222;57.346;12.150;2023-07-20T09:14:23;17.80;99.90
14277;DHT22;7222;57.346;12.150;2023-07-20T09:16:53;17.60;99.90
14277;DHT22;7222;57.346;12.150;2023-07-20T09:19:21;17.50;99.90
14277;DHT22;7222;57.346;12.150;2023-07-20T09:21:49;17.00;99.90
14277;DHT22;7222;57.346;12.150;2023-07-20T09:24:18;16.90;99.90
14277;DHT22;7222;57.346;12.150;2023-07-20T09:26:47;17.50;99.90
14277;DHT22;7222;57.346;12.150;2023-07-20T09:29:18;17.60;99.90
14277;DHT22;7222;57.346;12.150;2023-07-20T09:31:58;17.90;99.90
14277;DHT22;7222;57.346;12.150;2023-07-20T09:34:27;17.40;99.90
14277;DHT22;7222;57.346;12.150;2023-07-20T09:36:55;17.60;99.90
14277;DHT22;7222;57.346;12.150;2023-07-20T09:39:22;18.30;99.90
14277;DHT22;7222;57.346;12.150;2023-07-20T09:41:51;18.00;99.90
14277;DHT22;7222;57.346;12.150;2023-07-20T09:44:19;17.70;99.90
14277;DHT22;7222;57.346;12.150;2023-07-20T09:46:47;17.50;99.90
14277;DHT22;7222;57.346;12.150;2023-07-20T09:49:17;17.30;99.90
14277;DHT22;7222;57.346;12.150;2023-07-20T09:51:45;17.30;99.90
14277;DHT22;7222;57.346;12.150;2023-07-20T09:54:13;17.00;99.90
14277;DHT22;7222;57.346;12.150;2023-07-20T09:56:41;17.00;99.90
14277;DHT22;7222;57.346;12.150;2023-07-20T09:59:08;17.20;99.90
14277;DHT22;7222;57.346;12.150;2023-07-20T10:01:37;16.70;99.90
14277;DHT22;7222;57.346;12.150;2023-07-20T10:04:09;17.00;99.90
14277;DHT22;7222;57.346;12.150;2023-07-20T10:06:42;17.50;99.90
14277;DHT22;7222;57.346;12.150;2023-07-20T10:09:15;16.80;99.90
14277;DHT22;7222;57.346;12.150;2023-07-20T10:11:46;17.10;99.90
14277;DHT22;7222;57.346;12.150;2023-07-20T10:14:19;16.90;99.90
14277;DHT22;7222;57.346;12.150;2023-07-20T10:16:50;16.90;99.90
14277;DHT22;7222;57.346;12.150;2023-07-20T10:19:23;17.50;99.90
14277;DHT22;7222;57.346;12.150;2023-07-20T10:21:57;17.40;99.90
14277;DHT22;7222;57.346;12.150;2023-07-20T10:24:26;16.90;99.90
14277;DHT22;7222;57.346;12.150;2023-07-20T10:26:55;17.50;99.90
14277;DHT22;7222;57.346;12.150;2023-07-20T10:29:24;17.40;99.90
14277;DHT22;7222;57.346;12.150;2023-07-20T10:31:53;17.80;99.90
14277;DHT22;7222;57.346;12.150;2023-07-20T10:34:21;17.50;99.90
14277;DHT22;7222;57.346;12.150;2023-07-20T10:36:49;17.60;99.90
14277;DHT22;7222;57.346;12.150;2023-07-20T10:39:26;17.60;99.90
14277;DHT22;7222;57.346;12.150;2023-07-20T10:42:00;18.10;99.90
14277;DHT22;7222;57.346;12.150;2023-07-20T10:44:29;18.50;99.90
14277;DHT22;7222;57.346;12.150;2023-07-20T10:47:00;18.10;99.90
14277;DHT22;7222;57.346;12.150;2023-07-20T10:49:28;17.70;99.90
14277;DHT22;7222;57.346;12.150;2023-07-20T10:51:57;19.10;99.90
14277;DHT22;7222;57.346;12.150;2023-07-20T10:54:47;19.50;1.00
14277;DHT22;7222;57.346;12.150;2023-07-20T10:57:23;18.60;1.00
14277;DHT22;7222;57.346;12.150;2023-07-20T10:59:50;18.80;1.00
14277;DHT22;7222;57.346;12.150;2023-07-20T11:02:18;18.70;1.00
14277;DHT22;7222;57.346;12.150;2023-07-20T11:04:46;19.10;1.00
14277;DHT22;7222;57.346;12.150;2023-07-20T11:07:15;18.90;99.90
14277;DHT22;7222;57.346;12.150;2023-07-20T11:09:44;18.10;99.90
14277;DHT22;7222;57.346;12.150;2023-07-20T11:12:13;17.90;1.00
14277;DHT22;7222;57.346;12.150;2023-07-20T11:14:41;18.40;99.90
14277;DHT22;7222;57.346;12.150;2023-07-20T11:17:12;19.00;8.90
14277;DHT22;7222;57.346;12.150;2023-07-20T11:19:40;18.90;99.90
14277;DHT22;7222;57.346;12.150;2023-07-20T11:22:07;19.20;1.00
14277;DHT22;7222;57.346;12.150;2023-07-20T11:24:37;19.30;99.90
14277;DHT22;7222;57.346;12.150;2023-07-20T11:27:06;19.90;99.90
14277;DHT22;7222;57.346;12.150;2023-07-20T11:29:34;20.00;99.90
14277;DHT22;7222;57.346;12.150;2023-07-20T11:32:02;20.50;99.90
14277;DHT22;7222;57.346;12.150;2023-07-20T11:34:31;20.10;1.00
14277;DHT22;7222;57.346;12.150;2023-07-20T11:36:58;19.70;1.00
14277;DHT22;7222;57.346;12.150;2023-07-20T11:39:25;19.50;99.90
14277;DHT22;7222;57.346;12.150;2023-07-20T11:41:54;21.10;99.90
14277;DHT22;7222;57.346;12.150;2023-07-20T11:44:25;21.70;99.90
14277;DHT22;7222;57.346;12.150;2023-07-20T11:47:00;21.20;99.90
14277;DHT22;7222;57.346;12.150;2023-07-20T11:49:29;21.90;99.90
14277;DHT22;7222;57.346;12.150;2023-07-20T11:51:56;20.20;91.40
14277;DHT22;7222;57.346;12.150;2023-07-20T11:54:24;19.90;99.90
14277;DHT22;7222;57.346;12.150;2023-07-20T11:56:53;19.90;1.00
14277;DHT22;7222;57.346;12.150;2023-07-20T11:59:22;20.50;99.90
14277;DHT22;7222;57.346;12.150;2023-07-20T12:01:49;20.70;1.00
14277;DHT22;7222;57.346;12.150;2023-07-20T12:04:16;19.30;1.00
14277;DHT22;7222;57.346;12.150;2023-07-20T12:06:45;19.70;1.00
14277;DHT22;7222;57.346;12.150;2023-07-20T12:09:14;19.80;1.00
14277;DHT22;7222;57.346;12.150;2023-07-20T12:11:44;18.90;99.90
14277;DHT22;7222;57.346;12.150;2023-07-20T12:14:11;18.90;99.90
14277;DHT22;7222;57.346;12.150;2023-07-20T12:16:39;18.30;1.00
14277;DHT22;7222;57.346;12.150;2023-07-20T12:19:07;18.60;99.90
14277;DHT22;7222;57.346;12.150;2023-07-20T12:21:35;20.20;99.90
14277;DHT22;7222;57.346;12.150;2023-07-20T12:24:03;21.60;1.00
14277;DHT22;7222;57.346;12.150;2023-07-20T12:26:30;21.60;1.00
14277;DHT22;7222;57.346;12.150;2023-07-20T12:28:57;21.70;99.90
14277;DHT22;7222;57.346;12.150;2023-07-20T12:31:25;21.90;99.90
14277;DHT22;7222;57.346;12.150;2023-07-20T12:33:54;21.70;1.00
14277;DHT22;7222;57.346;12.150;2023-07-20T12:36:21;21.10;99.90
14277;DHT22;7222;57.346;12.150;2023-07-20T12:38:49;21.10;1.00
14277;DHT22;7222;57.346;12.150;2023-07-20T12:41:16;20.80;1.00
14277;DHT22;7222;57.346;12.150;2023-07-20T12:43:44;20.20;99.90
14277;DHT22;7222;57.346;12.150;2023-07-20T12:46:13;20.40;1.00
14277;DHT22;7222;57.346;12.150;2023-07-20T12:48:40;19.80;99.90
14277;DHT22;7222;57.346;12.150;2023-07-20T12:51:09;20.00;99.90
14277;DHT22;7222;57.346;12.150;2023-07-20T12:53:37;20.80;99.90
14277;DHT22;7222;57.346;12.150;2023-07-20T12:56:05;20.40;1.00
14277;DHT22;7222;57.346;12.150;2023-07-20T12:58:32;20.50;99.90
14277;DHT22;7222;57.346;12.150;2023-07-20T13:00:59;20.40;1.00
14277;DHT22;7222;57.346;12.150;2023-07-20T13:03:26;20.10;1.00
14277;DHT22;7222;57.346;12.150;2023-07-20T13:05:53;20.90;1.00
14277;DHT22;7222;57.346;12.150;2023-07-20T13:08:21;20.20;99.90
14277;DHT22;7222;57.346;12.150;2023-07-20T13:10:51;19.90;99.90
14277;DHT22;7222;57.346;12.150;2023-07-20T13:13:18;20.30;1.00
14277;DHT22;7222;57.346;12.150;2023-07-20T13:15:45;20.80;99.90
14277;DHT22;7222;57.346;12.150;2023-07-20T13:18:13;21.40;99.90
14277;DHT22;7222;57.346;12.150;2023-07-20T13:20:40;21.30;99.90
14277;DHT22;7222;57.346;12.150;2023-07-20T13:23:07;21.40;23.50
14277;DHT22;7222;57.346;12.150;2023-07-20T13:25:36;21.90;1.00
14277;DHT22;7222;57.346;12.150;2023-07-20T13:28:05;21.60;99.90
14277;DHT22;7222;57.346;12.150;2023-07-20T13:30:32;22.00;1.00
14277;DHT22;7222;57.346;12.150;2023-07-20T13:32:59;21.50;1.00
14277;DHT22;7222;57.346;12.150;2023-07-20T13:35:26;21.40;99.90
14277;DHT22;7222;57.346;12.150;2023-07-20T13:37:53;20.20;99.90
14277;DHT22;7222;57.346;12.150;2023-07-20T13:40:21;21.60;1.00
14277;DHT22;7222;57.346;12.150;2023-07-20T13:42:50;21.10;1.00
14277;DHT22;7222;57.346;12.150;2023-07-20T13:45:17;21.40;99.90
14277;DHT22;7222;57.346;12.150;2023-07-20T13:47:44;21.60;1.00
14277;DHT22;7222;57.346;12.150;2023-07-20T13:50:11;21.50;1.00
14277;DHT22;7222;57.346;12.150;2023-07-20T13:52:38;21.20;99.90
14277;DHT22;7222;57.346;12.150;2023-07-20T13:55:05;22.20;99.90
14277;DHT22;7222;57.346;12.150;2023-07-20T13:57:32;22.90;99.90
14277;DHT22;7222;57.346;12.150;2023-07-20T14:00:00;22.30;1.00
14277;DHT22;7222;57.346;12.150;2023-07-20T14:02:29;22.30;1.00
14277;DHT22;7222;57.346;12.150;2023-07-20T14:04:56;20.90;1.00
14277;DHT22;7222;57.346;12.150;2023-07-20T14:07:23;21.00;99.90
14277;DHT22;7222;57.346;12.150;2023-07-20T14:09:50;20.90;99.90
14277;DHT22;7222;57.346;12.150;2023-07-20T14:12:17;22.90;99.90
14277;DHT22;7222;57.346;12.150;2023-07-20T14:14:44;22.40;1.00
14277;DHT22;7222;57.346;12.150;2023-07-20T14:17:12;22.20;99.90
14277;DHT22;7222;57.346;12.150;2023-07-20T14:19:39;20.70;21.70
14277;DHT22;7222;57.346;12.150;2023-07-20T14:22:07;20.50;99.90
14277;DHT22;7222;57.346;12.150;2023-07-20T14:24:33;21.50;99.90
14277;DHT22;7222;57.346;12.150;2023-07-20T14:27:00;23.20;99.90
14277;DHT22;7222;57.346;12.150;2023-07-20T14:29:28;21.90;1.00
14277;DHT22;7222;57.346;12.150;2023-07-20T14:31:57;21.60;1.00
14277;DHT22;7222;57.346;12.150;2023-07-20T14:34:26;22.20;99.90
14277;DHT22;7222;57.346;12.150;2023-07-20T14:36:53;20.60;80.30
14277;DHT22;7222;57.346;12.150;2023-07-20T14:39:21;20.60;99.90
14277;DHT22;7222;57.346;12.150;2023-07-20T14:41:49;21.30;1.00
14277;DHT22;7222;57.346;12.150;2023-07-20T14:44:16;20.90;99.90
14277;DHT22;7222;57.346;12.150;2023-07-20T14:46:44;20.30;1.00
14277;DHT22;7222;57.346;12.150;2023-07-20T14:49:11;21.00;1.00
14277;DHT22;7222;57.346;12.150;2023-07-20T14:51:39;20.10;1.00
14277;DHT22;7222;57.346;12.150;2023-07-20T14:54:09;19.00;1.00
14277;DHT22;7222;57.346;12.150;2023-07-20T14:56:38;19.50;1.00
14277;DHT22;7222;57.346;12.150;2023-07-20T14:59:05;19.50;99.90
14277;DHT22;7222;57.346;12.150;2023-07-20T15:01:32;20.10;1.00
14277;DHT22;7222;57.346;12.150;2023-07-20T15:03:59;19.90;1.00
14277;DHT22;7222;57.346;12.150;2023-07-20T15:06:26;20.40;1.00
14277;DHT22;7222;57.346;12.150;2023-07-20T15:08:57;21.70;1.00
14277;DHT22;7222;57.346;12.150;2023-07-20T15:11:26;20.80;1.00
14277;DHT22;7222;57.346;12.150;2023-07-20T15:13:53;19.90;38.80
14277;DHT22;7222;57.346;12.150;2023-07-20T15:16:20;20.10;1.00
14277;DHT22;7222;57.346;12.150;2023-07-20T15:18:46;20.80;1.00
14277;DHT22;7222;57.346;12.150;2023-07-20T15:21:14;20.60;1.00
14277;DHT22;7222;57.346;12.150;2023-07-20T15:23:41;20.80;99.90
14277;DHT22;7222;57.346;12.150;2023-07-20T15:26:09;21.60;99.90
14277;DHT22;7222;57.346;12.150;2023-07-20T15:28:37;20.70;12.40
14277;DHT22;7222;57.346;12.150;2023-07-20T15:31:05;20.90;1.00
14277;DHT22;7222;57.346;12.150;2023-07-20T15:33:32;19.50;1.00
14277;DHT22;7222;57.346;12.150;2023-07-20T15:35:59;19.60;99.90
14277;DHT22;7222;57.346;12.150;2023-07-20T15:38:26;19.50;1.00
14277;DHT22;7222;57.346;12.150;2023-07-20T15:40:53;19.40;99.90
14277;DHT22;7222;57.346;12.150;2023-07-20T15:43:22;19.70;99.90